createdAt,value
2018-11-14T00:00:22.477Z,6.27
2018-11-14T00:02:51.506Z,6.00
2018-11-14T00:05:20.072Z,9.60
2018-11-14T00:07:48.602Z,9.63
2018-11-14T00:10:17.826Z,8.67
2018-11-14T00:12:45.929Z,5.87
2018-11-14T00:15:18.848Z,8.50
2018-11-14T00:17:48.123Z,7.47
2018-11-14T00:20:16.670Z,4.30
2018-11-14T00:22:46.418Z,6.17
2018-11-14T00:25:14.969Z,4.33
2018-11-14T00:27:43.549Z,4.60
2018-11-14T00:30:16.115Z,7.73
2018-11-14T00:32:44.689Z,5.20
2018-11-14T00:35:13.874Z,6.33
2018-11-14T00:37:42.853Z,7.63
2018-11-14T00:40:12.966Z,9.13
2018-11-14T00:42:42.271Z,9.63
2018-11-14T00:45:12.926Z,7.70
2018-11-14T00:47:42.409Z,8.50
2018-11-14T00:50:12.057Z,6.83
2018-11-14T00:52:40.802Z,8.13
2018-11-14T00:55:11.790Z,8.80
2018-11-14T00:57:40.525Z,8.83
2018-11-14T01:00:12.733Z,9.07
2018-11-14T01:02:41.386Z,13.10
2018-11-14T01:05:11.067Z,10.27
2018-11-14T01:07:39.780Z,10.73
2018-11-14T01:10:10.418Z,6.27
2018-11-14T01:12:39.322Z,6.60
2018-11-14T01:15:13.244Z,5.13
2018-11-14T01:17:42.415Z,6.97
2018-11-14T01:20:13.092Z,4.13
2018-11-14T01:22:42.554Z,6.50
2018-11-14T01:25:12.301Z,6.13
2018-11-14T01:27:41.174Z,7.10
2018-11-14T01:30:12.554Z,3.37
2018-11-14T01:32:41.320Z,4.07
2018-11-14T01:35:09.934Z,7.43
2018-11-14T01:37:38.499Z,8.40
2018-11-14T01:40:13.499Z,4.70
2018-11-14T01:42:42.413Z,6.27
2018-11-14T01:45:11.481Z,10.27
2018-11-14T01:47:40.055Z,6.17
2018-11-14T01:50:09.982Z,6.27
2018-11-14T01:52:39.025Z,9.97
2018-11-14T01:55:09.212Z,5.17
2018-11-14T01:57:37.768Z,7.03
2018-11-14T02:00:10.117Z,7.70
2018-11-14T02:05:12.657Z,6.13
2018-11-14T02:07:41.233Z,3.60
2018-11-14T02:10:13.393Z,5.77
2018-11-14T02:12:42.328Z,6.90
2018-11-14T02:15:16.514Z,7.80
2018-11-14T02:17:45.078Z,4.17
2018-11-14T02:20:13.917Z,5.13
2018-11-14T02:22:43.224Z,5.47
2018-11-14T02:25:12.400Z,3.33
2018-11-14T02:27:41.324Z,6.60
2018-11-14T02:30:12.878Z,3.33
2018-11-14T02:32:41.450Z,3.53
2018-11-14T02:35:10.305Z,7.57
2018-11-14T02:37:39.540Z,8.87
2018-11-14T02:40:10.125Z,6.43
2018-11-14T02:42:39.074Z,7.40
2018-11-14T02:45:07.929Z,7.57
2018-11-14T02:47:36.541Z,8.10
2018-11-14T02:50:05.651Z,7.47
2018-11-14T02:52:34.185Z,7.57
2018-11-14T02:55:02.748Z,7.77
2018-11-14T02:57:31.289Z,3.77
2018-11-14T02:59:59.822Z,4.73
2018-11-14T03:02:28.380Z,7.00
2018-11-14T03:04:56.896Z,4.30
2018-11-14T03:07:25.441Z,9.80
2018-11-14T03:09:53.962Z,6.17
2018-11-14T03:12:22.568Z,5.37
2018-11-14T03:14:51.065Z,11.87
2018-11-14T03:17:19.617Z,9.60
2018-11-14T03:19:48.173Z,6.50
2018-11-14T03:22:16.716Z,4.10
2018-11-14T03:24:45.273Z,9.63
2018-11-14T03:27:13.814Z,8.03
2018-11-14T03:29:42.393Z,6.70
2018-11-14T03:32:10.957Z,13.37
2018-11-14T03:34:39.524Z,9.95
2018-11-14T03:37:08.068Z,8.47
2018-11-14T03:39:36.646Z,6.90
2018-11-14T03:42:05.214Z,5.30
2018-11-14T03:44:33.770Z,5.67
2018-11-14T03:47:02.310Z,4.17
2018-11-14T03:49:30.869Z,5.53
2018-11-14T03:51:59.440Z,4.30
2018-11-14T03:54:27.999Z,4.77
2018-11-14T03:56:56.525Z,3.83
2018-11-14T03:59:25.082Z,4.03
2018-11-14T04:01:53.633Z,4.37
2018-11-14T04:04:22.192Z,7.93
2018-11-14T04:06:50.713Z,3.03
2018-11-14T04:09:19.308Z,4.50
2018-11-14T04:11:47.829Z,4.17
2018-11-14T04:14:16.375Z,6.57
2018-11-14T04:16:44.945Z,4.80
2018-11-14T04:19:13.532Z,4.43
2018-11-14T04:21:42.066Z,3.10
2018-11-14T04:24:10.629Z,4.20
2018-11-14T04:26:39.166Z,2.52
2018-11-14T04:29:07.729Z,4.07
2018-11-14T04:31:36.293Z,3.27
2018-11-14T04:34:05.049Z,7.50
2018-11-14T04:36:33.605Z,4.00
2018-11-14T04:39:02.141Z,5.25
2018-11-14T04:41:30.694Z,5.28
2018-11-14T04:43:59.225Z,3.02
2018-11-14T04:46:27.763Z,2.77
2018-11-14T04:48:56.289Z,4.20
2018-11-14T04:51:24.837Z,6.60
2018-11-14T04:53:53.365Z,5.00
2018-11-14T04:56:21.926Z,6.17
2018-11-14T04:58:50.447Z,5.50
2018-11-14T05:01:19.013Z,3.58
2018-11-14T05:03:47.641Z,3.33
2018-11-14T05:06:16.201Z,3.63
2018-11-14T05:08:44.712Z,7.37
2018-11-14T05:11:13.274Z,3.63
2018-11-14T05:13:41.801Z,4.83
2018-11-14T05:16:10.443Z,3.10
2018-11-14T05:18:38.980Z,4.17
2018-11-14T05:21:07.535Z,3.17
2018-11-14T05:23:36.076Z,7.78
2018-11-14T05:26:04.674Z,3.87
2018-11-14T05:28:33.195Z,5.33
2018-11-14T05:31:01.763Z,4.45
2018-11-14T05:33:30.298Z,4.15
2018-11-14T05:35:58.854Z,3.33
2018-11-14T05:38:27.378Z,5.77
2018-11-14T05:40:55.941Z,4.63
2018-11-14T05:43:24.461Z,5.13
2018-11-14T05:45:53.009Z,9.13
2018-11-14T05:48:21.542Z,5.87
2018-11-14T05:50:50.506Z,6.90
2018-11-14T05:53:19.054Z,8.87
2018-11-14T05:55:47.616Z,7.30
2018-11-14T05:58:16.147Z,5.70
2018-11-14T06:00:44.715Z,6.47
2018-11-14T06:03:13.277Z,5.10
2018-11-14T06:05:41.853Z,5.40
2018-11-14T06:08:10.383Z,3.63
2018-11-14T06:10:38.961Z,3.63
2018-11-14T06:13:07.507Z,6.80
2018-11-14T06:15:36.061Z,3.67
2018-11-14T06:18:04.805Z,8.78
2018-11-14T06:20:33.336Z,6.22
2018-11-14T06:23:07.547Z,3.87
2018-11-14T06:25:45.339Z,15.25
2018-11-14T06:28:24.200Z,8.53
2018-11-14T06:30:57.817Z,30.62
2018-11-14T06:33:28.358Z,26.80
2018-11-14T06:36:00.801Z,25.25
2018-11-14T06:38:35.525Z,33.90
2018-11-14T06:41:08.041Z,20.75
2018-11-14T06:43:38.656Z,18.75
2018-11-14T06:46:10.636Z,15.72
2018-11-14T06:48:40.082Z,34.30
2018-11-14T06:51:12.222Z,18.82
2018-11-14T06:53:42.629Z,23.00
2018-11-14T06:56:11.199Z,29.65
2018-11-14T06:58:41.297Z,24.32
2018-11-14T07:01:11.165Z,31.45
2018-11-14T07:03:41.443Z,40.90
2018-11-14T07:06:10.154Z,33.73
2018-11-14T07:08:42.356Z,29.87
2018-11-14T07:11:13.110Z,31.40
2018-11-14T07:13:43.621Z,19.00
2018-11-14T07:16:14.527Z,18.85
2018-11-14T07:18:43.881Z,27.77
2018-11-14T07:21:12.465Z,20.15
2018-11-14T07:23:41.020Z,57.70
2018-11-14T07:26:09.597Z,23.98
2018-11-14T07:28:38.167Z,37.90
2018-11-14T07:31:09.604Z,18.15
2018-11-14T07:33:38.243Z,13.87
2018-11-14T07:36:06.883Z,53.75
2018-11-14T07:38:40.512Z,30.87
2018-11-14T07:41:11.015Z,53.35
2018-11-14T07:43:40.516Z,101.80
2018-11-14T07:46:11.725Z,32.50
2018-11-14T07:48:40.532Z,48.50
2018-11-14T07:51:09.237Z,197.43
2018-11-14T07:53:38.149Z,32.78
2018-11-14T07:56:06.874Z,39.13
2018-11-14T07:58:40.752Z,63.10
2018-11-14T08:01:09.477Z,225.10
2018-11-14T08:03:38.130Z,55.50
2018-11-14T08:06:06.731Z,42.80
2018-11-14T08:08:35.354Z,108.73
2018-11-14T08:11:03.969Z,114.23
2018-11-14T08:13:33.697Z,73.45
2018-11-14T08:16:04.398Z,35.10
2018-11-14T08:18:33.085Z,32.88
2018-11-14T08:21:02.450Z,29.10
2018-11-14T08:23:35.367Z,93.17
2018-11-14T08:26:04.169Z,91.67
2018-11-14T08:28:40.733Z,27.33
2018-11-14T08:31:09.479Z,36.03
2018-11-14T08:33:38.142Z,38.67
2018-11-14T08:36:07.396Z,38.33
2018-11-14T08:38:36.718Z,21.80
2018-11-14T08:41:05.649Z,31.00
2018-11-14T08:43:34.217Z,14.73
2018-11-14T08:46:02.758Z,15.37
2018-11-14T08:48:31.322Z,14.50
2018-11-14T08:50:59.937Z,14.60
2018-11-14T08:53:28.507Z,27.07
2018-11-14T08:55:57.123Z,44.73
2018-11-14T08:58:25.773Z,23.60
2018-11-14T09:00:54.293Z,14.50
2018-11-14T09:03:22.862Z,13.83
2018-11-14T09:05:51.402Z,23.47
2018-11-14T09:08:19.961Z,17.00
2018-11-14T09:10:48.625Z,13.27
2018-11-14T09:13:25.942Z,9.77
2018-11-14T09:15:54.915Z,11.20
2018-11-14T09:18:23.532Z,17.57
2018-11-14T09:20:52.057Z,23.37
2018-11-14T09:23:20.624Z,11.33
2018-11-14T09:25:49.173Z,9.43
2018-11-14T09:28:18.029Z,8.97
2018-11-14T09:30:46.554Z,7.80
2018-11-14T09:33:19.249Z,84.93
2018-11-14T09:35:57.241Z,8.40
2018-11-14T09:38:25.929Z,10.50
2018-11-14T09:40:54.489Z,16.23
2018-11-14T09:43:23.053Z,9.47
2018-11-14T09:45:51.630Z,7.77
2018-11-14T09:48:20.182Z,7.47
2018-11-14T09:50:48.751Z,11.37
2018-11-14T09:53:17.413Z,6.20
2018-11-14T09:55:45.877Z,5.33
2018-11-14T09:58:16.388Z,5.47
2018-11-14T10:00:45.036Z,5.03
2018-11-14T10:03:16.366Z,7.30
2018-11-14T10:05:48.103Z,17.33
2018-11-14T10:08:16.639Z,9.77
2018-11-14T10:10:45.174Z,7.73
2018-11-14T10:13:13.773Z,5.47
2018-11-14T10:15:42.424Z,4.27
2018-11-14T10:18:10.906Z,4.20
2018-11-14T10:20:40.397Z,4.43
2018-11-14T10:23:10.354Z,8.47
2018-11-14T10:25:38.941Z,5.27
2018-11-14T10:28:07.563Z,3.63
2018-11-14T10:30:36.226Z,5.13
2018-11-14T10:33:05.101Z,3.13
2018-11-14T10:35:33.659Z,5.90
2018-11-14T10:38:02.212Z,6.83
2018-11-14T10:40:30.784Z,3.77
2018-11-14T10:42:59.418Z,5.70
2018-11-14T10:45:28.241Z,5.83
2018-11-14T10:47:56.777Z,5.50
2018-11-14T10:50:26.539Z,5.40
2018-11-14T10:52:55.102Z,6.17
2018-11-14T10:55:24.009Z,9.80
2018-11-14T10:57:53.085Z,7.03
2018-11-14T11:00:33.746Z,5.53
2018-11-14T11:03:08.213Z,7.53
2018-11-14T11:05:45.293Z,6.03
2018-11-14T11:08:19.673Z,5.97
2018-11-14T11:11:56.721Z,5.73
2018-11-14T11:14:36.335Z,4.97
2018-11-14T11:17:10.423Z,9.03
2018-11-14T11:19:39.554Z,9.30
2018-11-14T11:22:08.143Z,9.10
2018-11-14T11:24:36.722Z,6.37
2018-11-14T11:27:05.386Z,6.07
2018-11-14T11:29:40.933Z,6.03
2018-11-14T11:32:09.496Z,6.97
2018-11-14T11:34:38.076Z,5.67
2018-11-14T11:37:06.861Z,8.03
2018-11-14T11:39:35.400Z,4.87
2018-11-14T11:42:03.982Z,7.53
2018-11-14T11:44:33.410Z,6.23
2018-11-14T11:47:02.078Z,7.47
2018-11-14T11:49:30.678Z,6.60
2018-11-14T11:51:59.262Z,7.20
2018-11-14T11:54:27.807Z,7.60
2018-11-14T11:56:56.362Z,7.30
2018-11-14T11:59:24.931Z,6.47
2018-11-14T12:01:53.494Z,6.90
2018-11-14T12:04:22.125Z,7.40
2018-11-14T12:06:50.727Z,7.03
2018-11-14T12:09:19.763Z,9.30
2018-11-14T12:11:48.337Z,9.10
2018-11-14T12:14:16.917Z,8.93
2018-11-14T12:16:45.557Z,10.40
2018-11-14T12:19:16.901Z,10.47
2018-11-14T12:21:45.426Z,11.47
2018-11-14T12:24:13.982Z,11.33
2018-11-14T12:26:42.564Z,10.53
2018-11-14T12:29:11.110Z,13.10
2018-11-14T12:31:39.745Z,12.40
2018-11-14T12:34:08.298Z,10.97
2018-11-14T12:36:37.485Z,12.57
2018-11-14T12:39:08.117Z,11.07
2018-11-14T12:41:36.871Z,11.77
2018-11-14T12:44:06.193Z,9.63
2018-11-14T12:46:34.954Z,11.90
2018-11-14T12:49:03.931Z,10.13
2018-11-14T12:51:32.594Z,10.77
2018-11-14T12:54:01.137Z,11.13
2018-11-14T12:56:29.710Z,10.67
2018-11-14T12:58:59.201Z,9.87
2018-11-14T13:01:27.774Z,9.97
2018-11-14T13:03:57.282Z,11.57
2018-11-14T13:06:26.429Z,9.60
2018-11-14T13:08:54.965Z,10.70
2018-11-14T13:11:23.623Z,11.87
2018-11-14T13:13:52.290Z,15.50
2018-11-14T13:16:20.986Z,11.10
2018-11-14T13:18:50.579Z,12.53
2018-11-14T13:21:19.227Z,15.57
2018-11-14T13:23:47.902Z,14.17
2018-11-14T13:26:16.505Z,14.93
2018-11-14T13:28:45.858Z,21.67
2018-11-14T13:31:14.481Z,18.33
2018-11-14T13:33:43.062Z,20.93
2018-11-14T13:36:11.706Z,21.47
2018-11-14T13:38:40.826Z,20.90
2018-11-14T13:41:09.376Z,22.60
2018-11-14T13:43:38.462Z,23.23
2018-11-14T13:46:07.148Z,24.03
2018-11-14T13:48:35.793Z,23.70
2018-11-14T13:51:04.752Z,22.83
2018-11-14T13:53:33.772Z,22.07
2018-11-14T13:56:02.657Z,19.57
2018-11-14T13:58:31.486Z,21.10
2018-11-14T14:01:00.175Z,19.60
2018-11-14T14:03:28.753Z,21.67
2018-11-14T14:05:58.063Z,23.57
2018-11-14T14:08:27.145Z,22.33
2018-11-14T14:10:55.921Z,20.83
2018-11-14T14:13:24.614Z,23.43
2018-11-14T14:15:53.554Z,21.23
2018-11-14T14:18:22.442Z,24.40
2018-11-14T14:20:51.081Z,22.30
2018-11-14T14:23:20.433Z,22.60
2018-11-14T14:25:49.063Z,25.20
2018-11-14T14:28:17.622Z,27.27
2018-11-14T14:30:46.250Z,27.90
2018-11-14T14:33:14.800Z,26.13
2018-11-14T14:35:43.344Z,25.43
2018-11-14T14:38:11.989Z,26.03
2018-11-14T14:40:40.465Z,25.00
2018-11-14T14:43:09.016Z,26.30
2018-11-14T14:45:37.545Z,25.77
2018-11-14T14:48:06.694Z,26.07
2018-11-14T14:50:35.233Z,29.73
2018-11-14T14:53:03.827Z,27.77
2018-11-14T14:55:34.850Z,29.30
2018-11-14T14:58:03.550Z,30.07
2018-11-14T15:00:32.228Z,29.60
2018-11-14T15:03:00.802Z,30.30
2018-11-14T15:05:29.341Z,28.17
2018-11-14T15:07:57.927Z,25.57
2018-11-14T15:10:26.479Z,29.20
2018-11-14T15:12:55.350Z,25.90
2018-11-14T15:15:23.991Z,28.00
2018-11-14T15:17:52.634Z,26.77
2018-11-14T15:20:22.684Z,27.30
2018-11-14T15:22:52.463Z,26.97
2018-11-14T15:25:22.366Z,25.70
2018-11-14T15:27:51.610Z,29.03
2018-11-14T15:30:24.947Z,31.87
2018-11-14T15:32:53.690Z,30.43
2018-11-14T15:35:23.063Z,30.33
2018-11-14T15:37:52.186Z,32.07
2018-11-14T15:40:22.374Z,31.40
2018-11-14T15:42:51.052Z,34.43
2018-11-14T15:45:23.138Z,34.17
2018-11-14T15:47:51.696Z,33.23
2018-11-14T15:50:22.669Z,32.33
2018-11-14T15:52:52.155Z,36.37
2018-11-14T15:55:21.069Z,32.80
2018-11-14T15:57:49.668Z,33.37
2018-11-14T16:00:19.737Z,35.83
2018-11-14T16:02:48.268Z,35.43
2018-11-14T16:05:18.067Z,34.57
2018-11-14T16:07:47.747Z,39.27
2018-11-14T16:10:17.786Z,42.67
2018-11-14T16:12:46.461Z,41.20
2018-11-14T16:15:16.290Z,44.27
2018-11-14T16:17:44.857Z,37.80
2018-11-14T16:20:14.795Z,36.30
2018-11-14T16:22:43.338Z,35.20
2018-11-14T16:25:17.118Z,38.00
2018-11-14T16:27:46.575Z,38.27
2018-11-14T16:30:19.236Z,36.63
2018-11-14T16:32:48.845Z,34.40
2018-11-14T16:35:17.400Z,37.37
2018-11-14T16:37:45.953Z,35.73
2018-11-14T16:40:22.659Z,34.37
2018-11-14T16:42:51.898Z,38.33
2018-11-14T16:45:20.491Z,40.43
2018-11-14T16:47:49.063Z,34.20
2018-11-14T16:50:18.617Z,35.80
2018-11-14T16:52:47.196Z,42.80
2018-11-14T16:55:17.099Z,36.50
2018-11-14T16:57:46.481Z,42.57
2018-11-14T17:00:17.584Z,38.17
2018-11-14T17:02:46.113Z,33.07
2018-11-14T17:05:15.237Z,32.17
2018-11-14T17:07:43.762Z,32.33
2018-11-14T17:10:14.721Z,32.20
2018-11-14T17:12:44.122Z,36.17
2018-11-14T17:15:15.310Z,30.67
2018-11-14T17:17:43.893Z,35.23
2018-11-14T17:20:13.804Z,38.73
2018-11-14T17:22:42.969Z,35.03
2018-11-14T17:25:12.613Z,41.47
2018-11-14T17:27:41.672Z,41.60
2018-11-14T17:30:12.861Z,39.50
2018-11-14T17:32:41.845Z,43.23
2018-11-14T17:35:11.614Z,42.07
2018-11-14T17:37:41.046Z,38.10
2018-11-14T17:40:19.416Z,44.20
2018-11-14T17:42:48.920Z,49.73
2018-11-14T17:45:19.203Z,48.87
2018-11-14T17:47:48.482Z,58.73
2018-11-14T17:50:25.139Z,39.80
2018-11-14T17:52:54.467Z,42.70
2018-11-14T17:55:24.100Z,45.97
2018-11-14T17:57:53.278Z,42.50
2018-11-14T18:00:25.266Z,50.20
2018-11-14T18:02:53.913Z,44.30
2018-11-14T18:05:24.569Z,44.37
2018-11-14T18:07:53.941Z,42.67
2018-11-14T18:10:23.678Z,91.67
2018-11-14T18:12:53.268Z,58.67
2018-11-14T18:15:21.811Z,43.03
2018-11-14T18:17:51.510Z,46.70
2018-11-14T18:20:21.172Z,45.57
2018-11-14T18:22:50.397Z,40.70
2018-11-14T18:25:18.963Z,37.27
2018-11-14T18:27:47.660Z,37.60
2018-11-14T18:30:22.802Z,37.33
2018-11-14T18:32:52.005Z,54.03
2018-11-14T18:35:21.383Z,66.07
2018-11-14T18:37:50.909Z,45.87
2018-11-14T18:40:20.805Z,50.80
2018-11-14T18:42:49.512Z,40.23
2018-11-14T18:45:21.651Z,48.73
2018-11-14T18:47:50.684Z,51.73
2018-11-14T18:50:20.571Z,75.53
2018-11-14T18:52:49.605Z,72.40
2018-11-14T18:55:19.382Z,50.60
2018-11-14T18:57:48.291Z,60.37
2018-11-14T19:00:18.901Z,176.33
2018-11-14T19:02:47.519Z,61.20
2018-11-14T19:05:16.692Z,54.33
2018-11-14T19:07:45.407Z,55.13
2018-11-14T19:10:15.387Z,49.33
2018-11-14T19:12:51.231Z,66.77
2018-11-14T19:15:21.294Z,57.20
2018-11-14T19:17:49.933Z,60.67
2018-11-14T19:20:20.182Z,53.93
2018-11-14T19:22:48.887Z,50.10
2018-11-14T19:25:18.877Z,58.97
2018-11-14T19:27:47.993Z,82.73
2018-11-14T19:30:17.890Z,66.73
2018-11-14T19:32:47.821Z,57.60
2018-11-14T19:35:16.491Z,46.20
2018-11-14T19:37:46.229Z,51.10
2018-11-14T19:40:17.320Z,54.97
2018-11-14T19:42:46.566Z,57.33
2018-11-14T19:45:17.531Z,63.57
2018-11-14T19:47:46.100Z,56.00
2018-11-14T19:50:15.942Z,56.10
2018-11-14T19:52:45.213Z,52.43
2018-11-14T19:55:15.275Z,48.70
2018-11-14T19:57:44.842Z,55.83
2018-11-14T20:00:17.103Z,57.93
2018-11-14T20:02:45.813Z,46.57
2018-11-14T20:05:15.251Z,45.83
2018-11-14T20:07:43.986Z,41.83
2018-11-14T20:10:14.469Z,52.10
2018-11-14T20:12:43.073Z,42.97
2018-11-14T20:15:12.793Z,42.40
2018-11-14T20:17:42.535Z,39.40
2018-11-14T20:20:17.847Z,42.70
2018-11-14T20:22:49.529Z,33.20
2018-11-14T20:25:19.404Z,35.50
2018-11-14T20:27:48.769Z,37.27
2018-11-14T20:30:20.596Z,37.80
2018-11-14T20:32:49.709Z,36.67
2018-11-14T20:35:19.384Z,35.13
2018-11-14T20:37:47.957Z,37.33
2018-11-14T20:40:17.797Z,32.47
2018-11-14T20:42:48.414Z,31.13
2018-11-14T20:45:19.569Z,32.33
2018-11-14T20:47:48.122Z,36.20
2018-11-14T20:50:18.172Z,31.27
2018-11-14T20:52:47.923Z,34.03
2018-11-14T20:55:16.476Z,32.43
2018-11-14T20:57:45.291Z,29.10
2018-11-14T21:00:20.061Z,30.00
2018-11-14T21:02:49.102Z,33.83
2018-11-14T21:05:17.674Z,32.77
2018-11-14T21:07:46.301Z,32.50
2018-11-14T21:10:16.125Z,31.33
2018-11-14T21:12:45.134Z,33.73
2018-11-14T21:15:17.279Z,30.80
2018-11-14T21:17:46.137Z,33.83
2018-11-14T21:20:14.714Z,37.53
2018-11-14T21:22:43.292Z,37.00
2018-11-14T21:25:13.425Z,33.70
2018-11-14T21:27:43.109Z,33.00
2018-11-14T21:30:13.329Z,35.83
2018-11-14T21:32:42.345Z,37.27
2018-11-14T21:35:14.408Z,38.70
2018-11-14T21:37:44.006Z,39.17
2018-11-14T21:40:13.131Z,40.13
2018-11-14T21:42:41.927Z,33.47
2018-11-14T21:45:13.270Z,35.57
2018-11-14T21:47:46.961Z,33.30
2018-11-14T21:50:16.273Z,36.77
2018-11-14T21:52:45.134Z,40.00
2018-11-14T21:55:13.717Z,43.87
2018-11-14T21:57:42.278Z,42.27
2018-11-14T22:00:14.301Z,41.13
2018-11-14T22:02:44.394Z,37.50
2018-11-14T22:05:13.848Z,37.97
2018-11-14T22:07:42.378Z,36.47
2018-11-14T22:10:13.550Z,38.03
2018-11-14T22:12:42.727Z,40.20
2018-11-14T22:15:11.845Z,36.93
2018-11-14T22:17:40.814Z,45.27
2018-11-14T22:20:11.571Z,41.10
2018-11-14T22:22:41.143Z,41.73
2018-11-14T22:25:10.381Z,42.70
2018-11-14T22:27:38.993Z,38.93
2018-11-14T22:30:10.553Z,36.27
2018-11-14T22:32:39.068Z,35.47
2018-11-14T22:35:08.796Z,36.67
2018-11-14T22:37:37.569Z,42.50
2018-11-14T22:40:07.734Z,37.83
2018-11-14T22:42:36.266Z,45.13
2018-11-14T22:45:04.999Z,42.23
2018-11-14T22:47:33.530Z,35.80
2018-11-14T22:50:02.093Z,33.93
2018-11-14T22:52:30.633Z,39.20
2018-11-14T22:54:59.287Z,37.70
2018-11-14T22:57:27.817Z,40.23
2018-11-14T22:59:56.362Z,38.70
2018-11-14T23:02:24.905Z,38.37
2018-11-14T23:04:54.390Z,36.50
2018-11-14T23:07:22.957Z,38.53
2018-11-14T23:09:51.546Z,40.33
2018-11-14T23:12:20.076Z,35.97
2018-11-14T23:14:48.646Z,38.37
2018-11-14T23:17:17.197Z,43.00
2018-11-14T23:19:45.744Z,46.80
2018-11-14T23:22:14.274Z,41.40
2018-11-14T23:24:42.843Z,38.67
2018-11-14T23:27:11.373Z,44.23
2018-11-14T23:29:39.921Z,48.50
2018-11-14T23:32:08.457Z,43.10
2018-11-14T23:34:40.945Z,45.83
2018-11-14T23:37:09.474Z,40.80
2018-11-14T23:39:38.029Z,43.27
2018-11-14T23:42:06.582Z,41.73
2018-11-14T23:44:35.129Z,40.93
2018-11-14T23:47:03.706Z,40.73
2018-11-14T23:49:32.236Z,37.70
2018-11-14T23:52:00.802Z,40.73
2018-11-14T23:54:29.537Z,37.93
2018-11-14T23:56:58.108Z,41.07
2018-11-14T23:59:26.801Z,39.97
